AirNav   ATP
 
 356 users online  

7FL6 Spruce Creek Airport
Daytona Beach, Florida, USA

GOING TO DAYTONA BEACH?


FAA INFORMATION EFFECTIVE 17 AUGUST 2017

Location

FAA Identifier: 7FL6
Lat/Long: 29-04-48.6750N / 081-02-47.8650W
29-04.811250N / 081-02.797750W
29.0801875 / -81.0466292
(estimated)
Elevation: 23.5 ft. / 7 m (estimated)
Variation: 05W (2000)
From city: 7 miles S of DAYTONA BEACH, FL
Time zone: UTC -4 (UTC -5 during Standard Time)
Zip code: 32124

Airport Operations

Airport use: Private use. Permission required prior to landing
Activation date: 01/1970
Control tower: no
ARTCC: JACKSONVILLE CENTER
FSS: SAINT PETERSBURG FLIGHT SERVICE STATION
NOTAMs facility: FDC (NOTAM-D service not available)
Attendance: 0800-DUSK
Wind indicator: yes
Segmented circle: yes
Lights: MIRL RY 05/23 PRESET ON LOW INTST DUSK-DAWN; TO INCR INTST ACTVT - 122.975.
Beacon: white-green (lighted land airport)
ROTG BCN LCTD APRXLY 1400 FT SE (PERPENDICULAR) FROM MID-POINT OF RY 05/23 ON 50 FT ANT POLE. Operates sunset to sunrise.

Airport Communications

UNICOM: 122.975
WX AWOS-3 at EVB (5 nm E): 124.625 (386-409-4705)
WX ASOS at DAB (6 nm N): PHONE 386-253-7469
WX AWOS-3 at DED (12 nm W): 119.575 (386-740-5811)
WX AWOS-3 at OMN (14 nm N): 118.475 (386-615-7084)

Nearby radio navigation aids

VOR radial/distance  VOR name  Freq  Var
OMNr166/13.8ORMOND BEACH VORTAC112.6000E
ORLr025/35.6ORLANDO VORTAC112.2000E

 
NDB name  Hdg/Dist  Freq  Var  ID
SANFORD035/20.540805WSFB ... ..-. -...

Airport Services

Fuel available: 100LL JET-A+
FUEL 24 HR CREDIT CARD SVC AVBL. TRUCK SVC AVBL.
Parking: tiedowns
Airframe service: MINOR
Powerplant service: MINOR

Runway Information

Runway 5/23

Dimensions: 4000 x 176 ft. / 1219 x 54 m
Surface: asphalt, in good condition
Runway edge lights: medium intensity
RUNWAY 5  RUNWAY 23
Latitude: 29-04.607000N29-05.015500N
Longitude: 081-03.092667W081-02.502833W
Elevation: 21.9 ft.22.7 ft.
Traffic pattern: leftleft
Displaced threshold: 346 ft.346 ft.
Markings: nonprecision, in good conditionnonprecision, in good condition
Visual slope indicator: 2-light PAPI on left (3.00 degrees glide path)
Runway end identifier lights: yesyes
Touchdown point: yes, no lightsyes, no lights
Obstructions: 50 ft. trees, 1200 ft. from runway, 20:1 slope to clear50 ft. trees, 1500 ft. from runway, 26:1 slope to clear

Airport Ownership and Management from official FAA records

Ownership: Privately-owned
Owner: SPRUCE CREEK PROPERTY OWNERS ASSN
212-1 CESSNA BLVD
PORT ORANGE, FL 32128
Phone (386) 760-5884
Manager: JOE FRIEND
212-1 CESSNA BLVD
PORT ORANGE, FL 32128
Phone (386) 275-1894

Airport Operational Statistics

Aircraft based on the field: 508
Single engine airplanes: 400
Multi engine airplanes: 90
Jet airplanes: 10
Helicopters: 5
Gliders airplanes: 1
Ultralights: 2
    
Aircraft operations: avg 60/day
91% local general aviation
9% transient general aviation

Additional Remarks

RY 05/23 TREES IN PRIM SFC BOTH SIDES 118' FM CNTRLN.
PPR.
FOR CD OR TO CNL IFR CTC DAB APCH AT 386-226-3939.

Instrument Procedures

There are no published instrument procedures at 7FL6.

Some nearby airports with instrument procedures:

KEVB - New Smyrna Beach Municipal Airport (5 nm E)
KDAB - Daytona Beach International Airport (6 nm N)
X50 - Massey Ranch Airpark (9 nm SE)
KDED - DeLand Municipal Airport-Sidney H Taylor Field (12 nm W)
KOMN - Ormond Beach Municipal Airport (14 nm N)
 
Loc | Ops | Rwys | IFR | FBO | Links
Com | Nav | Svcs | Stats | Notes


 
Area around 7FL6 (Spruce Creek Airport)
 
Road maps at: MapQuest Bing Google
 
Aerial photo
WARNING: Photo may not be current or correct
Aerial photo of 7FL6 (Spruce Creek Airport)
Photo by Robert Thacker
Photo taken 28-Jan-2015
looking north from 7000 ft.

Do you have a better or more recent aerial photo of Spruce Creek Airport that you would like to share? If so, please send us your photo.

 
Sectional chart

 
Airport distance calculator
Flying to Spruce Creek Airport? Find the distance to fly.

From to 7FL6

Sunrise and sunset
Times for 24-Aug-2017
 Local
(UTC-4)
 Zulu
(UTC)
Morning civil twilight06:3410:34
Sunrise06:5910:59
Sunset19:5423:54
Evening civil twilight20:1900:19

Current date and time
Zulu (UTC)  24-Aug-2017 10:11:41
Local (UTC-4)  24-Aug-2017 06:11:41
 
METAR
7FL6 SuperAWOS
240855Z AUTO 00000KT 10SM 25/24 A2989
KEVB 
5nm E 
240150Z 14007KT 10SM SCT030 27/24 A2990 RMK LAST
KDAB 
6nm N 
240953Z 00000KT 10SM FEW200 25/24 A2989 RMK AO2 SLP119 T02500244 $
KDED 
12nm W 
240955Z AUTO 00000KT 10SM CLR 24/23 A2988 RMK AO2
KOMN 
14nm N 
232250Z 11008KT 7SM SKC 29/24 A2988 RMK LAST
TAF
KDAB 
6nm N 
240537Z 2406/2506 18003KT P6SM FEW015 SCT250 FM241400 17005KT P6SM VCSH SCT030 BKN250 FM241800 10008KT P6SM VCTS SCT035CB BKN250 FM242200 11006KT P6SM FEW035 BKN250
NOTAMs
Click for the latest NOTAMs
NOTAMs are issued by the DoD/FAA and will open in a separate window not controlled by AirNav.

 

 
 

Would you like to see your business listed on this page?

 If your business provides an interesting product or service to pilots, flight crews, aircraft, or users of the Spruce Creek Airport, you should consider listing it here.  To start the listing process, click on the button below
 
Add a business
 

Other Pages about Spruce Creek Airport

scpoa.com/airport
 
Update a link
 
Copyright © AirNav, LLC. All rights reserved. Privacy Policy  Contact